Time;durP1;ratioP1;P1;durP2;ratioP2;P2;SDS_P1;SDS_P2;PMS_P1;PMS_P2;Temp;Humidity;BMP_temperature;BMP_pressure;BME280_temperature;BME280_humidity;BME280_pressure;Samples;Min_cycle;Max_cycle;Signal;HPM_P1;HPM_P2
2022/04/14 00:02:10;;;;;;;19.92;7.25;;;13.00;1.00;;;;;;7362623;19;20014;-61
2022/04/14 00:04:39;;;;;;;11.48;6.95;;;12.90;1.00;;;;;;7364225;19;20058;-61
2022/04/14 00:07:12;;;;;;;16.17;6.82;;;12.80;1.00;;;;;;7359477;19;20127;-61
2022/04/14 00:09:42;;;;;;;12.40;6.28;;;12.80;1.00;;;;;;7364183;19;20018;-61
2022/04/14 00:12:12;;;;;;;12.50;6.72;;;12.70;1.00;;;;;;7360630;19;20882;-62
2022/04/14 00:14:42;;;;;;;12.13;6.05;;;12.70;1.00;;;;;;7385574;19;20082;-62
2022/04/14 00:17:14;;;;;;;10.40;6.15;;;12.70;1.00;;;;;;7361027;19;20081;-61
2022/04/14 00:19:44;;;;;;;13.82;7.00;;;12.60;1.00;;;;;;7363034;19;20014;-61
2022/04/14 00:22:17;;;;;;;10.55;6.05;;;12.60;1.60;;;;;;7363206;19;20498;-61
2022/04/14 00:24:47;;;;;;;11.55;6.53;;;12.60;2.20;;;;;;7365370;19;20621;-61
2022/04/14 00:27:20;;;;;;;8.55;6.20;;;12.50;2.10;;;;;;7359802;19;20090;-61
2022/04/14 00:29:50;;;;;;;10.55;5.55;;;12.50;2.20;;;;;;7386160;19;20473;-61
2022/04/14 00:32:20;;;;;;;9.63;5.85;;;12.40;2.60;;;;;;7361328;19;20006;-61
2022/04/14 00:34:50;;;;;;;12.50;6.30;;;12.40;2.20;;;;;;7362106;19;20034;-61
2022/04/14 00:37:22;;;;;;;9.15;5.43;;;12.70;1.00;;;;;;7361308;19;20021;-61
2022/04/14 00:39:52;;;;;;;10.93;6.25;;;12.90;1.00;;;;;;7362778;19;20014;-62
2022/04/14 00:42:22;;;;;;;9.88;5.72;;;12.60;1.00;;;;;;7361036;19;20097;-62
2022/04/14 00:44:52;;;;;;;15.20;6.50;;;12.50;1.50;;;;;;7365610;19;20010;-62
2022/04/14 00:47:22;;;;;;;11.80;6.05;;;12.50;2.00;;;;;;7381422;19;20025;-62
2022/04/14 00:49:52;;;;;;;13.38;5.50;;;12.40;1.20;;;;;;7362318;19;20486;-61
2022/04/14 00:52:25;;;;;;;12.25;5.80;;;12.30;2.40;;;;;;7360181;19;20011;-61
2022/04/14 00:54:55;;;;;;;10.25;6.32;;;12.20;3.20;;;;;;7362144;19;20014;-61
2022/04/14 00:57:25;;;;;;;10.40;6.40;;;12.20;4.30;;;;;;7358667;19;20014;-61
2022/04/14 00:59:55;;;;;;;13.75;6.45;;;12.10;4.70;;;;;;7362303;19;20010;-62
2022/04/14 01:02:24;;;;;;;10.20;6.32;;;12.00;5.40;;;;;;7381716;19;20101;-62
2022/04/14 01:04:55;;;;;;;14.70;5.93;;;11.90;5.90;;;;;;7360188;19;20037;-62
2022/04/14 01:07:28;;;;;;;11.40;5.07;;;12.00;5.50;;;;;;7356744;19;20020;-62
2022/04/14 01:09:58;;;;;;;12.40;5.47;;;12.00;4.70;;;;;;7362859;19;20537;-62
2022/04/14 01:12:29;;;;;;;10.48;5.43;;;12.40;1.90;;;;;;7360018;19;20013;-61
2022/04/14 01:14:58;;;;;;;11.88;5.57;;;12.60;1.00;;;;;;7359460;19;20025;-61
2022/04/14 01:17:28;;;;;;;13.10;6.05;;;12.50;1.00;;;;;;7381728;19;20018;-62
2022/04/14 01:19:58;;;;;;;8.55;5.63;;;12.30;1.80;;;;;;7360719;19;20010;-61
2022/04/14 01:22:35;;;;;;;13.27;6.00;;;12.10;3.10;;;;;;7363834;19;20375;-62
2022/04/14 01:25:08;;;;;;;10.18;4.80;;;12.20;2.70;;;;;;7361501;19;20018;-62
2022/04/14 01:27:38;;;;;;;8.98;5.13;;;12.30;1.60;;;;;;7357717;19;20077;-61
2022/04/14 01:30:09;;;;;;;10.27;5.05;;;12.30;1.00;;;;;;7363605;19;20102;-61
2022/04/14 01:32:39;;;;;;;12.07;5.78;;;12.30;1.00;;;;;;7383587;19;20007;-61
2022/04/14 01:35:10;;;;;;;9.52;4.90;;;12.20;1.80;;;;;;7359126;19;20014;-61
2022/04/14 01:37:40;;;;;;;12.38;6.00;;;12.00;3.10;;;;;;7357219;19;20034;-62
2022/04/14 01:40:13;;;;;;;10.95;5.43;;;11.90;4.10;;;;;;7361487;19;20013;-62
2022/04/14 01:42:43;;;;;;;12.97;5.33;;;11.90;3.60;;;;;;7361557;19;20015;-62
2022/04/14 01:45:14;;;;;;;15.15;5.03;;;11.90;3.40;;;;;;7361936;19;20015;-62
2022/04/14 01:47:44;;;;;;;9.85;5.15;;;12.00;2.30;;;;;;7379597;19;20011;-62
2022/04/14 01:50:16;;;;;;;12.88;5.15;;;12.20;1.40;;;;;;7360422;19;20014;-61
2022/04/14 01:52:46;;;;;;;10.38;4.93;;;12.30;1.00;;;;;;7358976;19;20016;-61
2022/04/14 01:55:19;;;;;;;13.60;4.97;;;12.40;1.00;;;;;;7362451;19;20514;-61
2022/04/14 01:57:49;;;;;;;14.13;6.47;;;12.40;1.00;;;;;;7358897;19;20019;-62
2022/04/14 02:00:19;;;;;;;10.77;5.07;;;12.40;1.00;;;;;;7358659;19;20018;-62
2022/04/14 02:02:49;;;;;;;10.13;5.07;;;12.40;1.00;;;;;;7382080;19;20010;-62
2022/04/14 02:05:19;;;;;;;13.52;5.85;;;12.50;1.00;;;;;;7360727;19;20100;-62
2022/04/14 02:07:49;;;;;;;11.25;5.55;;;12.50;1.00;;;;;;7356223;19;20017;-62
2022/04/14 02:10:21;;;;;;;16.92;5.72;;;12.40;1.00;;;;;;7359279;19;20788;-62
2022/04/14 02:12:51;;;;;;;15.95;6.00;;;12.40;1.00;;;;;;7359837;19;20017;-61
2022/04/14 02:15:21;;;;;;;14.35;6.00;;;12.50;1.00;;;;;;7359776;19;20014;-62
2022/04/14 02:17:51;;;;;;;12.35;5.93;;;12.60;1.00;;;;;;7369560;19;20019;-62
2022/04/14 02:20:21;;;;;;;9.45;5.85;;;12.50;1.00;;;;;;7386603;19;20014;-62
2022/04/14 02:22:51;;;;;;;8.32;5.38;;;12.60;1.10;;;;;;7366999;19;20021;-62
2022/04/14 02:25:23;;;;;;;14.77;6.40;;;12.50;1.90;;;;;;7367876;19;20025;-62
2022/04/14 02:27:53;;;;;;;13.48;6.85;;;12.60;1.60;;;;;;7366145;19;20010;-62
2022/04/14 02:30:24;;;;;;;17.02;6.65;;;12.50;2.00;;;;;;7367471;19;20721;-62
2022/04/14 02:32:54;;;;;;;16.50;6.90;;;12.50;2.00;;;;;;7367571;19;20462;-63
2022/04/14 02:35:24;;;;;;;12.05;6.90;;;12.50;2.00;;;;;;7387804;19;20426;-62
2022/04/14 02:37:55;;;;;;;11.88;7.30;;;12.40;2.50;;;;;;7364075;19;20014;-62
2022/04/14 02:40:28;;;;;;;10.75;6.47;;;12.30;3.70;;;;;;7366321;19;20010;-62
2022/04/14 02:42:58;;;;;;;12.40;6.40;;;12.30;4.10;;;;;;7367151;19;20329;-62
2022/04/14 02:45:29;;;;;;;15.82;6.50;;;12.30;4.20;;;;;;7365803;19;20592;-62
2022/04/14 02:48:10;;;;;;;16.05;8.10;;;12.20;5.00;;;;;;7366082;19;20015;-62
2022/04/14 02:50:43;;;;;;;14.27;7.60;;;12.20;5.50;;;;;;7389152;19;20025;-62
2022/04/14 02:53:13;;;;;;;13.65;7.90;;;12.20;5.50;;;;;;7365924;19;20018;-62
2022/04/14 02:55:45;;;;;;;14.70;7.78;;;12.20;5.60;;;;;;7362366;19;20041;-62
2022/04/14 02:58:15;;;;;;;14.20;8.10;;;12.20;6.40;;;;;;7363877;19;20490;-62
2022/04/14 03:00:45;;;;;;;15.05;8.02;;;12.20;7.10;;;;;;7367508;19;20017;-62
2022/04/14 03:03:15;;;;;;;18.50;9.45;;;12.20;7.50;;;;;;7389368;19;20154;-62
2022/04/14 03:05:45;;;;;;;18.00;8.32;;;12.20;8.30;;;;;;7361685;19;20021;-62
2022/04/14 03:08:14;;;;;;;19.92;9.82;;;12.20;9.20;;;;;;7365388;19;20106;-62
2022/04/14 03:10:47;;;;;;;18.45;9.93;;;12.20;9.60;;;;;;7365251;19;20053;-61
2022/04/14 03:13:20;;;;;;;17.60;10.15;;;12.20;9.60;;;;;;7364416;19;20016;-62
2022/04/14 03:15:51;;;;;;;21.08;10.35;;;12.10;10.70;;;;;;7363148;19;20039;-61
2022/04/14 03:18:21;;;;;;;19.42;11.05;;;12.00;11.60;;;;;;7364080;19;20119;-63
2022/04/14 03:20:50;;;;;;;17.77;10.65;;;12.10;12.40;;;;;;7388010;19;20077;-61
2022/04/14 03:23:20;;;;;;;19.75;11.02;;;12.00;12.80;;;;;;7363659;19;20018;-61
2022/04/14 03:25:53;;;;;;;30.00;12.40;;;12.00;14.00;;;;;;7362414;19;20007;-62
2022/04/14 03:28:23;;;;;;;21.50;12.15;;;12.00;15.00;;;;;;7346783;19;20018;-61
2022/04/14 03:30:55;;;;;;;21.75;13.45;;;11.90;15.10;;;;;;7363049;19;20021;-62
2022/04/14 03:33:25;;;;;;;24.48;13.65;;;12.00;16.40;;;;;;7362931;19;20470;-61
2022/04/14 03:35:55;;;;;;;25.88;13.65;;;11.90;17.60;;;;;;7383129;19;20010;-62
2022/04/14 03:38:25;;;;;;;21.08;13.55;;;11.90;18.50;;;;;;7364365;19;20105;-61
2022/04/14 03:41:07;;;;;;;20.73;13.65;;;11.90;19.10;;;;;;7365196;19;20015;-61
2022/04/14 03:43:38;;;;;;;26.77;15.63;;;11.80;19.60;;;;;;7364012;19;20019;-62
2022/04/14 03:46:08;;;;;;;23.95;15.73;;;11.90;21.50;;;;;;7366079;19;20533;-62
2022/04/14 03:48:38;;;;;;;28.02;18.05;;;11.90;21.50;;;;;;7362688;19;20538;-62
2022/04/14 03:51:08;;;;;;;24.05;15.50;;;11.90;22.50;;;;;;7387685;19;20420;-61
2022/04/14 03:53:37;;;;;;;28.55;18.67;;;11.70;22.50;;;;;;7362889;19;20467;-61
2022/04/14 03:56:10;;;;;;;28.25;18.45;;;11.80;24.70;;;;;;7364537;19;20033;-62
2022/04/14 03:58:40;;;;;;;29.95;19.10;;;11.80;25.30;;;;;;7366035;19;20010;-62
2022/04/14 04:01:10;;;;;;;25.27;19.60;;;11.80;26.70;;;;;;7365459;19;20022;-61
2022/04/14 04:03:40;;;;;;;30.08;19.17;;;11.80;26.30;;;;;;7363506;19;20006;-61
2022/04/14 04:06:10;;;;;;;21.58;13.68;;;11.80;26.00;;;;;;7386173;19;20077;-60
2022/04/14 04:08:39;;;;;;;29.15;18.15;;;11.50;23.20;;;;;;7363884;19;20007;-61
2022/04/14 04:11:12;;;;;;;19.50;13.02;;;11.60;27.50;;;;;;7365166;19;20082;-61
2022/04/14 04:13:42;;;;;;;21.00;13.20;;;11.20;24.50;;;;;;7363010;19;20017;-61
2022/04/14 04:16:12;;;;;;;20.40;13.82;;;11.00;23.80;;;;;;7363280;19;20102;-61
2022/04/14 04:18:41;;;;;;;33.38;21.35;;;11.00;26.80;;;;;;7362571;19;20019;-61
2022/04/14 04:21:11;;;;;;;31.42;20.02;;;11.20;32.00;;;;;;7386116;19;20014;-61
2022/04/14 04:23:41;;;;;;;29.05;20.35;;;11.20;30.60;;;;;;7361419;19;20114;-61
2022/04/14 04:26:14;;;;;;;34.80;22.98;;;11.30;30.50;;;;;;7361509;19;20101;-60
2022/04/14 04:28:43;;;;;;;39.42;24.00;;;11.40;33.10;;;;;;7362547;19;20007;-61
2022/04/14 04:31:14;;;;;;;41.05;23.95;;;11.30;31.90;;;;;;7364419;19;20017;-61
2022/04/14 04:33:44;;;;;;;35.50;25.58;;;11.40;33.00;;;;;;7361398;19;20034;-61
2022/04/14 04:36:13;;;;;;;35.40;25.23;;;11.50;33.70;;;;;;7384968;19;20066;-61
2022/04/14 04:38:43;;;;;;;35.00;24.38;;;11.40;33.40;;;;;;7361916;19;20024;-61
2022/04/14 04:41:16;;;;;;;37.90;25.30;;;11.30;32.50;;;;;;7363513;19;20085;-61
2022/04/14 04:43:45;;;;;;;40.58;26.15;;;11.30;32.70;;;;;;7359906;19;20014;-61
2022/04/14 04:46:16;;;;;;;39.53;25.85;;;11.40;35.60;;;;;;7362633;19;20015;-61
2022/04/14 04:48:46;;;;;;;38.05;22.70;;;11.30;33.80;;;;;;7360545;19;20031;-60
2022/04/14 04:51:16;;;;;;;41.03;25.23;;;11.30;33.00;;;;;;7385373;19;20077;-60
2022/04/14 04:53:46;;;;;;;36.40;23.75;;;11.60;33.40;;;;;;7360253;19;20391;-60
2022/04/14 04:56:18;;;;;;;39.67;26.83;;;11.70;30.00;;;;;;7360634;19;20102;-60
2022/04/14 04:58:48;;;;;;;46.90;32.65;;;11.80;28.60;;;;;;7361903;19;20015;-60
2022/04/14 05:01:18;;;;;;;47.72;32.05;;;12.20;29.50;;;;;;7362783;19;20006;-61
2022/04/14 05:03:48;;;;;;;47.88;31.27;;;12.20;29.00;;;;;;7360703;19;20010;-61
2022/04/14 05:06:17;;;;;;;49.80;33.17;;;12.40;28.40;;;;;;7384105;19;20081;-61
2022/04/14 05:08:48;;;;;;;45.83;30.95;;;12.70;26.70;;;;;;7361967;19;20014;-61
2022/04/14 05:11:20;;;;;;;46.83;30.23;;;12.80;23.80;;;;;;7362435;19;20016;-61
2022/04/14 05:13:50;;;;;;;45.03;29.65;;;12.80;22.30;;;;;;7359604;19;20014;-61
2022/04/14 05:16:20;;;;;;;45.67;30.05;;;13.10;20.60;;;;;;7361207;19;20010;-61
2022/04/14 05:18:50;;;;;;;41.72;29.05;;;13.20;19.70;;;;;;7361594;19;20002;-61
2022/04/14 05:21:20;;;;;;;45.92;29.65;;;13.10;20.70;;;;;;7366598;19;20078;-61
2022/04/14 05:23:50;;;;;;;43.90;29.42;;;13.40;17.80;;;;;;7381660;19;20119;-61
2022/04/14 05:26:22;;;;;;;40.65;29.27;;;13.70;16.00;;;;;;7359951;19;20011;-61
2022/04/14 05:28:52;;;;;;;44.80;29.08;;;13.80;15.30;;;;;;7359731;19;20015;-61
2022/04/14 05:31:23;;;;;;;42.35;28.90;;;13.40;14.30;;;;;;7362341;19;20766;-61
2022/04/14 05:33:53;;;;;;;43.65;29.05;;;13.70;15.60;;;;;;7358553;19;20014;-61
2022/04/14 05:36:22;;;;;;;45.97;30.50;;;13.50;17.40;;;;;;7359872;19;20442;-60
2022/04/14 05:38:52;;;;;;;41.55;27.35;;;13.20;20.70;;;;;;7380863;19;20014;-62
2022/04/14 05:41:25;;;;;;;49.28;29.15;;;13.20;21.00;;;;;;7360821;19;19999;-60
2022/04/14 05:43:56;;;;;;;38.55;26.52;;;13.20;21.40;;;;;;7357604;19;20011;-60
2022/04/14 05:46:26;;;;;;;45.90;26.80;;;13.20;21.10;;;;;;7359882;19;20119;-60
2022/04/14 05:48:56;;;;;;;46.25;27.63;;;13.10;21.40;;;;;;7360936;19;20006;-61
2022/04/14 05:51:26;;;;;;;42.33;28.27;;;13.10;20.70;;;;;;7361276;19;20013;-61
2022/04/14 05:53:56;;;;;;;43.20;28.40;;;13.30;22.90;;;;;;7380019;19;20014;-61
2022/04/14 05:56:29;;;;;;;37.88;27.15;;;13.50;20.70;;;;;;7359184;19;20006;-61
2022/04/14 05:58:59;;;;;;;38.67;25.90;;;13.50;20.70;;;;;;7359812;19;20021;-61
2022/04/14 06:01:30;;;;;;;37.88;26.88;;;13.70;18.80;;;;;;7360608;19;20477;-61
2022/04/14 06:04:00;;;;;;;40.35;28.38;;;13.60;18.10;;;;;;7359456;19;20385;-61
2022/04/14 06:06:29;;;;;;;38.10;27.67;;;13.40;21.60;;;;;;7357231;19;20023;-61
2022/04/14 06:08:59;;;;;;;37.75;26.67;;;13.40;21.50;;;;;;7379565;19;20011;-61
2022/04/14 06:11:32;;;;;;;42.03;28.55;;;13.30;21.90;;;;;;7358747;19;20017;-61
2022/04/14 06:14:02;;;;;;;43.30;27.42;;;13.50;21.60;;;;;;7359305;19;20133;-62
2022/04/14 06:16:32;;;;;;;42.30;27.85;;;13.60;20.70;;;;;;7356260;19;20014;-62
2022/04/14 06:19:02;;;;;;;44.85;28.30;;;13.70;20.40;;;;;;7359553;19;20478;-62
2022/04/14 06:21:32;;;;;;;39.20;26.67;;;13.60;20.30;;;;;;7359278;19;20425;-62
2022/04/14 06:24:01;;;;;;;34.75;27.90;;;13.40;22.20;;;;;;7378745;19;20622;-61
2022/04/14 06:26:38;;;;;;;39.15;26.63;;;13.80;20.70;;;;;;7358033;19;20375;-61
2022/04/14 06:29:08;;;;;;;39.45;26.80;;;13.70;19.10;;;;;;7359785;19;20014;-61
2022/04/14 06:31:38;;;;;;;39.45;27.05;;;13.60;20.20;;;;;;7358205;19;20097;-61
2022/04/14 06:34:08;;;;;;;40.50;26.38;;;13.90;18.50;;;;;;7360938;19;20014;-61
2022/04/14 06:36:38;;;;;;;37.40;24.75;;;13.80;18.10;;;;;;7359649;19;20101;-61
2022/04/14 06:39:12;;;;;;;39.22;25.60;;;14.20;17.90;;;;;;7379283;19;20082;-61
2022/04/14 06:41:44;;;;;;;36.50;24.60;;;14.20;15.30;;;;;;7354488;19;20014;-61
2022/04/14 06:44:14;;;;;;;34.05;24.13;;;14.20;14.40;;;;;;7359569;19;20049;-61
2022/04/14 06:46:44;;;;;;;37.85;25.48;;;14.00;17.70;;;;;;7357624;19;20090;-61
2022/04/14 06:49:14;;;;;;;36.05;24.05;;;14.30;16.60;;;;;;7359443;19;20036;-61
2022/04/14 06:51:44;;;;;;;33.33;23.48;;;14.30;15.30;;;;;;7356086;19;20366;-61
2022/04/14 06:54:15;;;;;;;36.95;24.45;;;14.20;15.60;;;;;;7382200;19;20018;-61
2022/04/14 06:56:47;;;;;;;36.33;23.13;;;14.40;16.10;;;;;;7357701;19;20128;-61
2022/04/14 06:59:17;;;;;;;34.03;23.42;;;14.80;12.70;;;;;;7358145;19;20098;-61
2022/04/14 07:01:47;;;;;;;33.28;23.45;;;14.30;13.60;;;;;;7357238;19;20010;-61
2022/04/14 07:04:17;;;;;;;33.25;23.40;;;14.60;12.80;;;;;;7357732;19;20070;-60
2022/04/14 07:06:47;;;;;;;31.40;21.52;;;14.30;12.90;;;;;;7360577;19;20111;-62
2022/04/14 07:09:17;;;;;;;33.40;21.70;;;14.50;13.20;;;;;;7389025;19;20049;-61
2022/04/14 07:11:49;;;;;;;35.22;22.23;;;15.00;12.60;;;;;;7364879;19;20109;-61
2022/04/14 07:14:20;;;;;;;33.65;21.42;;;15.00;9.30;;;;;;7365417;19;20011;-62
2022/04/14 07:16:50;;;;;;;32.00;22.27;;;15.10;10.00;;;;;;7365520;19;20033;-61
2022/04/14 07:19:20;;;;;;;30.73;22.98;;;15.10;10.60;;;;;;7367012;19;20007;-62
2022/04/14 07:21:50;;;;;;;33.45;21.58;;;15.00;9.60;;;;;;7363227;19;20415;-62
2022/04/14 07:24:20;;;;;;;30.08;21.70;;;14.80;10.10;;;;;;7369557;19;20010;-62
2022/04/14 07:26:53;;;;;;;29.70;21.05;;;15.10;8.80;;;;;;7386303;19;20113;-61
2022/04/14 07:29:23;;;;;;;28.60;21.75;;;15.30;7.70;;;;;;7366308;19;20081;-61
2022/04/14 07:31:53;;;;;;;32.65;21.40;;;15.10;9.20;;;;;;7363983;19;20095;-62
2022/04/14 07:34:23;;;;;;;33.60;21.75;;;15.20;7.60;;;;;;7365398;19;20011;-62
2022/04/14 07:36:52;;;;;;;34.40;22.10;;;15.50;7.80;;;;;;7362903;19;20090;-61
2022/04/14 07:39:22;;;;;;;30.83;21.15;;;15.30;8.50;;;;;;7367135;19;20106;-62
2022/04/14 07:41:55;;;;;;;27.25;19.48;;;15.60;7.00;;;;;;7384272;19;20082;-61
2022/04/14 07:44:24;;;;;;;29.02;20.60;;;15.70;6.80;;;;;;7364573;19;20011;-60
2022/04/14 07:46:55;;;;;;;30.60;20.25;;;15.90;4.30;;;;;;7362153;19;20090;-61
2022/04/14 07:49:27;;;;;;;28.73;20.70;;;15.60;6.00;;;;;;7366352;19;20826;-62
2022/04/14 07:51:57;;;;;;;26.08;20.55;;;16.00;4.70;;;;;;7362074;19;20011;-62
2022/04/14 07:54:27;;;;;;;27.30;19.70;;;15.80;4.80;;;;;;7364820;19;20015;-61
2022/04/14 07:57:00;;;;;;;31.00;19.42;;;15.80;4.20;;;;;;7382660;19;20011;-62
2022/04/14 07:59:30;;;;;;;32.40;20.73;;;15.90;4.30;;;;;;7365256;19;20040;-62
2022/04/14 08:02:01;;;;;;;26.27;18.70;;;15.90;3.40;;;;;;7361399;19;20094;-62
2022/04/14 08:04:32;;;;;;;27.30;19.80;;;15.90;3.80;;;;;;7363570;19;20018;-61
2022/04/14 08:07:02;;;;;;;28.35;19.92;;;15.90;4.30;;;;;;7359983;19;20068;-63
2022/04/14 08:09:46;;;;;;;30.30;20.27;;;15.70;3.80;;;;;;7365582;19;20616;-61
2022/04/14 08:12:19;;;;;;;27.50;20.17;;;15.80;4.20;;;;;;7382992;19;20361;-62
2022/04/14 08:14:59;;;;;;;29.90;20.17;;;16.00;4.30;;;;;;7363451;19;20511;-62
2022/04/14 08:17:29;;;;;;;27.95;21.73;;;16.20;2.40;;;;;;7357440;19;20017;-62
2022/04/14 08:19:58;;;;;;;32.03;20.05;;;16.20;2.80;;;;;;7364833;19;20031;-61
2022/04/14 08:22:28;;;;;;;28.30;19.65;;;16.60;1.90;;;;;;7360080;19;20011;-61
2022/04/14 08:24:58;;;;;;;27.67;20.27;;;16.10;1.90;;;;;;7364114;19;20109;-62
2022/04/14 08:27:31;;;;;;;29.30;21.23;;;15.80;1.00;;;;;;7361536;19;20041;-62
2022/04/14 08:30:01;;;;;;;31.88;20.65;;;16.10;2.60;;;;;;7386877;19;20015;-62
2022/04/14 08:32:31;;;;;;;26.75;18.80;;;16.10;2.50;;;;;;7359736;19;20003;-62
2022/04/14 08:35:01;;;;;;;22.98;18.75;;;16.60;1.00;;;;;;7362159;19;20031;-61
2022/04/14 08:37:31;;;;;;;40.88;21.17;;;16.70;1.00;;;;;;7359475;19;20014;-62
2022/04/14 08:40:01;;;;;;;30.20;19.27;;;16.70;1.00;;;;;;7366466;19;20073;-62
2022/04/14 08:42:40;;;;;;;30.05;19.50;;;16.60;1.00;;;;;;7360181;19;20017;-62
2022/04/14 08:45:14;;;;;;;28.73;19.38;;;16.70;1.00;;;;;;7384076;19;20074;-61
2022/04/14 08:47:44;;;;;;;25.02;18.38;;;16.60;1.00;;;;;;7360046;19;20048;-62
2022/04/14 08:50:15;;;;;;;25.02;18.52;;;16.90;1.00;;;;;;7364774;19;20017;-60
2022/04/14 08:52:45;;;;;;;25.75;20.33;;;16.90;1.00;;;;;;7360691;19;20024;-62
2022/04/14 08:55:16;;;;;;;28.85;19.02;;;16.90;1.00;;;;;;7362647;19;20105;-60
2022/04/14 08:57:49;;;;;;;26.42;18.00;;;16.90;1.00;;;;;;7358600;19;20081;-61
2022/04/14 09:00:20;;;;;;;22.25;16.42;;;17.00;1.00;;;;;;7385924;19;20018;-61
2022/04/14 09:02:51;;;;;;;21.38;16.30;;;17.50;1.00;;;;;;7351929;19;20013;-61
2022/04/14 09:05:21;;;;;;;24.77;17.80;;;17.80;1.00;;;;;;7359696;19;20428;-61
2022/04/14 09:07:51;;;;;;;26.25;17.58;;;17.70;1.00;;;;;;7360954;19;20092;-61
2022/04/14 09:10:22;;;;;;;21.27;16.27;;;17.50;1.00;;;;;;7362199;19;20027;-61
2022/04/14 09:12:55;;;;;;;26.25;18.73;;;17.30;1.00;;;;;;7363474;19;20035;-62
2022/04/14 09:15:25;;;;;;;24.83;18.73;;;17.50;1.00;;;;;;7383076;19;20019;-62
2022/04/14 09:17:58;;;;;;;28.05;18.55;;;17.10;1.00;;;;;;7358201;19;20021;-62
2022/04/14 09:20:37;;;;;;;24.80;18.65;;;17.30;1.00;;;;;;7363200;19;20082;-61
2022/04/14 09:23:20;;;;;;;27.98;18.98;;;17.30;1.00;;;;;;7363073;19;20132;-62
2022/04/14 09:25:52;;;;;;;26.70;17.55;;;17.80;1.00;;;;;;7358612;19;20011;-62
2022/04/14 09:28:25;;;;;;;23.00;18.33;;;18.00;1.00;;;;;;7356064;19;20025;-61
2022/04/14 09:31:03;;;;;;;24.17;16.90;;;17.70;1.00;;;;;;7361318;19;20014;-62
2022/04/14 09:33:34;;;;;;;22.17;16.35;;;17.60;1.00;;;;;;7362302;19;20010;-62
2022/04/14 09:36:10;;;;;;;25.40;17.45;;;17.70;1.00;;;;;;7382485;19;20474;-61
2022/04/14 09:38:55;;;;;;;27.48;18.20;;;17.80;1.00;;;;;;7358423;19;20466;-60
2022/04/14 09:41:32;;;;;;;25.27;18.05;;;17.70;1.00;;;;;;7359924;19;20006;-61
2022/04/14 09:44:08;;;;;;;27.00;18.00;;;17.20;1.00;;;;;;7360168;19;20026;-61
2022/04/14 09:46:39;;;;;;;29.40;18.75;;;17.50;1.00;;;;;;7361014;19;20010;-62
2022/04/14 09:49:11;;;;;;;24.80;17.50;;;17.80;1.00;;;;;;7356851;19;20470;-62
2022/04/14 09:51:42;;;;;;;20.10;16.63;;;18.20;1.00;;;;;;7361609;19;20074;-62
2022/04/14 09:54:15;;;;;;;23.35;16.58;;;18.90;1.00;;;;;;7382631;19;20019;-62
2022/04/14 09:56:47;;;;;;;24.17;17.92;;;18.50;1.00;;;;;;7360097;19;20006;-62
2022/04/14 09:59:22;;;;;;;23.35;16.20;;;18.00;1.00;;;;;;7356617;19;20489;-61
2022/04/14 10:02:11;;;;;;;25.55;16.95;;;18.40;1.00;;;;;;7362462;19;20086;-61
2022/04/14 10:04:43;;;;;;;28.38;17.13;;;17.60;1.00;;;;;;7360813;19;20019;-62
2022/04/14 10:07:14;;;;;;;23.98;16.83;;;18.30;1.00;;;;;;7356638;19;21430;-62
2022/04/14 10:09:48;;;;;;;25.90;17.52;;;18.60;1.00;;;;;;7359428;19;20026;-61
2022/04/14 10:12:31;;;;;;;23.47;17.87;;;18.60;1.00;;;;;;7382483;19;20014;-61
2022/04/14 10:15:09;;;;;;;22.98;16.85;;;18.50;1.00;;;;;;7360251;19;20288;-61
2022/04/14 10:17:40;;;;;;;20.45;16.83;;;18.90;1.00;;;;;;7356485;19;20022;-62
2022/04/14 10:20:14;;;;;;;22.13;15.70;;;18.70;1.00;;;;;;7361849;19;20015;-63
2022/04/14 10:22:44;;;;;;;26.15;16.48;;;18.60;1.00;;;;;;7359518;19;20010;-63
2022/04/14 10:25:14;;;;;;;18.75;14.85;;;19.30;1.00;;;;;;7359073;19;20494;-62
2022/04/14 10:27:44;;;;;;;23.15;15.80;;;19.40;1.00;;;;;;7352794;19;20429;-63
2022/04/14 10:30:20;;;;;;;21.70;15.32;;;19.10;1.00;;;;;;7383732;19;20018;-62
2022/04/14 10:32:50;;;;;;;21.38;16.45;;;19.40;1.00;;;;;;7359709;19;20074;-62
2022/04/14 10:35:20;;;;;;;26.77;15.73;;;19.30;1.00;;;;;;7359250;19;20367;-62
2022/04/14 10:37:53;;;;;;;20.80;14.98;;;19.00;1.00;;;;;;7353489;19;20085;-62
2022/04/14 10:40:25;;;;;;;20.50;14.07;;;18.70;1.00;;;;;;7364050;19;20006;-62
2022/04/14 10:42:56;;;;;;;19.58;13.45;;;19.00;1.00;;;;;;7366079;19;20023;-61
2022/04/14 10:45:29;;;;;;;20.52;16.30;;;19.10;1.00;;;;;;7387785;19;20078;-62
2022/04/14 10:48:01;;;;;;;18.77;15.20;;;19.30;1.00;;;;;;7363546;19;20123;-62
2022/04/14 10:50:33;;;;;;;21.27;16.10;;;18.80;1.00;;;;;;7368370;19;20006;-62
2022/04/14 10:53:08;;;;;;;22.58;15.45;;;19.20;1.00;;;;;;7366367;19;20020;-62
2022/04/14 10:55:49;;;;;;;20.63;14.25;;;19.60;1.00;;;;;;7363499;19;20015;-62
2022/04/14 10:58:49;;;;;;;21.27;15.63;;;20.10;1.00;;;;;;7362669;19;20015;-62
2022/04/14 11:01:58;;;;;;;21.60;16.52;;;20.00;1.00;;;;;;7366495;19;20049;-62
2022/04/14 11:04:31;;;;;;;22.25;16.50;;;20.00;1.00;;;;;;7363728;19;20561;-61
2022/04/14 11:07:03;;;;;;;23.05;16.38;;;19.80;1.00;;;;;;7366214;19;20015;-61
2022/04/14 11:10:00;;;;;;;20.35;16.20;;;19.80;1.00;;;;;;7363056;19;20015;-62
2022/04/14 11:12:32;;;;;;;30.27;16.08;;;19.80;1.00;;;;;;7362519;19;20022;-62
2022/04/14 11:15:03;;;;;;;24.33;15.13;;;20.20;1.00;;;;;;7385217;19;20021;-60
2022/04/14 11:18:07;;;;;;;17.85;14.60;;;20.00;1.00;;;;;;7364165;19;20023;-61
2022/04/14 11:20:54;;;;;;;23.15;16.02;;;20.10;1.00;;;;;;7365816;19;20011;-60
2022/04/14 11:23:29;;;;;;;25.33;17.50;;;19.70;1.00;;;;;;7359093;19;20388;-61
2022/04/14 11:26:11;;;;;;;22.25;16.40;;;20.20;1.00;;;;;;7361920;19;20019;-60
2022/04/14 11:28:46;;;;;;;21.23;15.10;;;20.40;1.00;;;;;;7363370;19;20087;-61
2022/04/14 11:31:26;;;;;;;26.60;16.65;;;20.80;1.00;;;;;;7364980;19;20065;-62
2022/04/14 11:34:00;;;;;;;24.60;16.45;;;20.30;1.00;;;;;;7361984;19;20035;-61
2022/04/14 11:36:46;;;;;;;23.08;17.33;;;20.20;1.00;;;;;;7364500;19;20172;-62
2022/04/14 11:39:25;;;;;;;19.70;14.48;;;19.90;1.00;;;;;;7384510;19;20466;-62
2022/04/14 11:41:57;;;;;;;19.67;15.07;;;20.30;1.00;;;;;;7365388;19;20082;-62
2022/04/14 11:44:31;;;;;;;20.17;13.30;;;20.20;1.00;;;;;;7359994;19;20018;-62
2022/04/14 11:47:02;;;;;;;18.42;13.27;;;20.50;1.00;;;;;;7362701;19;20123;-61
2022/04/14 11:49:36;;;;;;;19.67;14.20;;;21.10;1.00;;;;;;7361922;19;20014;-61
2022/04/14 11:52:07;;;;;;;;;;;21.10;1.00;;;;;;7364504;19;20006;-62
2022/04/14 11:54:39;;;;;;;17.13;13.27;;;21.00;1.00;;;;;;7362479;19;19911;-62
2022/04/14 11:57:13;;;;;;;21.08;14.10;;;21.00;1.00;;;;;;7385239;19;20106;-62
2022/04/14 11:59:44;;;;;;;20.27;14.63;;;21.00;1.00;;;;;;7362484;19;20018;-62
2022/04/14 12:02:18;;;;;;;18.65;13.07;;;21.30;1.00;;;;;;7364552;19;20014;-62
2022/04/14 12:04:53;;;;;;;20.70;14.63;;;21.70;1.00;;;;;;7363762;19;20031;-61
2022/04/14 12:07:25;;;;;;;19.63;13.23;;;21.10;1.00;;;;;;7361087;19;20066;-62
2022/04/14 12:10:01;;;;;;;17.67;12.50;;;21.30;1.00;;;;;;7362849;19;20017;-62
2022/04/14 12:12:34;;;;;;;17.58;14.23;;;21.10;1.00;;;;;;7362273;19;20022;-62
2022/04/14 12:15:04;;;;;;;22.30;14.05;;;21.10;1.00;;;;;;7384697;19;20018;-61
2022/04/14 12:17:37;;;;;;;22.65;13.43;;;20.80;1.00;;;;;;7362904;19;20074;-62
2022/04/14 12:20:11;;;;;;;21.52;12.98;;;21.40;1.00;;;;;;7363298;19;20102;-60
2022/04/14 12:22:44;;;;;;;19.27;13.15;;;21.10;1.00;;;;;;7360639;19;20070;-62
2022/04/14 12:25:14;;;;;;;18.98;12.75;;;20.70;1.00;;;;;;7363817;19;20007;-62
2022/04/14 12:27:48;;;;;;;16.80;12.70;;;20.40;1.00;;;;;;7362221;19;20032;-62
2022/04/14 12:30:18;;;;;;;22.15;13.93;;;20.40;1.00;;;;;;7387249;19;20541;-62
2022/04/14 12:32:50;;;;;;;22.88;14.45;;;20.80;1.00;;;;;;7360917;19;20007;-62
2022/04/14 12:35:36;;;;;;;17.35;13.70;;;20.90;1.00;;;;;;7362189;19;20066;-62
2022/04/14 12:38:17;;;;;;;17.77;13.48;;;20.30;1.00;;;;;;7362061;19;20038;-61
2022/04/14 12:40:59;;;;;;;17.83;12.88;;;20.40;1.00;;;;;;7364925;19;20114;-61
2022/04/14 12:43:33;;;;;;;17.15;14.05;;;20.80;1.00;;;;;;7362870;19;20781;-63
2022/04/14 12:46:05;;;;;;;15.52;12.63;;;20.60;1.00;;;;;;7363183;19;20014;-62
2022/04/14 12:48:39;;;;;;;15.70;11.48;;;20.80;1.00;;;;;;7361478;19;20029;-62
2022/04/14 12:51:11;;;;;;;;;;;21.20;1.00;;;;;;7386590;19;20011;-62
2022/04/14 12:53:42;;;;;;;17.17;13.90;;;21.20;1.00;;;;;;7360529;19;19918;-61
2022/04/14 12:56:18;;;;;;;21.08;12.35;;;21.00;1.00;;;;;;7362893;19;20037;-62
2022/04/14 12:59:13;;;;;;;18.88;12.98;;;21.40;1.00;;;;;;7359838;19;20566;-61
2022/04/14 13:01:51;;;;;;;17.50;13.25;;;21.10;1.00;;;;;;7361739;19;20033;-62
2022/04/14 13:04:23;;;;;;;18.05;14.40;;;21.30;1.00;;;;;;7358494;19;20512;-62